Time;durP1;ratioP1;P1;durP2;ratioP2;P2;SDS_P1;SDS_P2;PMS_P1;PMS_P2;Temp;Humidity;BMP_temperature;BMP_pressure;BME280_temperature;BME280_humidity;BME280_pressure;Samples;Min_cycle;Max_cycle;Signal;HPM_P1;HPM_P2
2021/07/11 00:04:14;;;;;;;7.17;6.47;;;18.90;99.90;;;;;;5145795;23;20506;-87
2021/07/11 00:06:41;;;;;;;10.20;7.70;;;18.90;99.90;;;;;;4994468;28;20469;-86
2021/07/11 00:09:08;;;;;;;7.47;6.77;;;18.90;99.90;;;;;;4981077;28;20578;-88
2021/07/11 00:11:34;;;;;;;9.03;8.03;;;18.90;99.90;;;;;;4995567;28;20505;-86
2021/07/11 00:14:02;;;;;;;8.53;7.73;;;18.90;99.90;;;;;;4996576;28;20476;-86
2021/07/11 00:16:30;;;;;;;8.20;7.50;;;19.00;99.90;;;;;;4993860;28;20978;-86
2021/07/11 00:21:39;;;;;;;9.33;8.43;;;19.10;99.90;;;;;;5137081;23;20502;-86
2021/07/11 00:24:05;;;;;;;13.40;9.37;;;19.40;99.90;;;;;;4994631;28;20525;-87
2021/07/11 00:26:54;;;;;;;9.20;8.30;;;19.30;99.90;;;;;;4987568;28;20824;-86
2021/07/11 00:29:54;;;;;;;11.07;8.97;;;19.20;99.90;;;;;;4992390;28;20488;-88
2021/07/11 00:32:38;;;;;;;11.97;9.50;;;19.40;99.90;;;;;;4920539;28;20872;-85
2021/07/11 00:35:06;;;;;;;11.47;9.50;;;19.50;99.90;;;;;;4994404;28;20458;-86
2021/07/11 00:37:33;;;;;;;9.43;8.43;;;19.50;99.90;;;;;;4999328;28;20440;-87
2021/07/11 00:40:00;;;;;;;9.40;8.27;;;19.50;99.90;;;;;;4989949;28;20485;-86
2021/07/11 00:42:27;;;;;;;10.00;9.00;;;19.40;99.90;;;;;;4989347;28;20459;-86
2021/07/11 00:44:53;;;;;;;9.10;8.20;;;19.50;99.90;;;;;;4988443;28;20804;-86
2021/07/11 00:47:20;;;;;;;10.93;9.80;;;19.50;99.90;;;;;;4994325;28;20457;-86
2021/07/11 00:49:46;;;;;;;9.97;8.73;;;19.40;99.90;;;;;;4992250;28;20486;-85
2021/07/11 00:52:14;;;;;;;11.53;8.67;;;19.50;99.90;;;;;;4991162;28;20540;-86
2021/07/11 00:58:06;;;;;;;7.90;7.10;;;19.60;99.90;;;;;;4878644;29;20437;-89
2021/07/11 01:00:34;;;;;;;8.27;7.47;;;19.60;99.90;;;;;;4868096;29;20542;-90
2021/07/11 01:03:04;;;;;;;11.40;7.13;;;19.40;99.90;;;;;;4943677;28;20460;-88
2021/07/11 01:05:31;;;;;;;8.03;7.00;;;19.40;99.90;;;;;;4944271;28;20460;-84
2021/07/11 01:08:26;;;;;;;7.77;6.77;;;19.50;99.90;;;;;;4952434;28;20556;-83
2021/07/11 01:11:01;;;;;;;7.80;6.67;;;19.40;99.90;;;;;;4926149;29;20470;-86
2021/07/11 01:13:29;;;;;;;8.70;7.20;;;19.30;99.90;;;;;;4938841;29;20452;-82
2021/07/11 01:16:00;;;;;;;8.27;7.27;;;19.30;99.90;;;;;;4939636;29;20453;-84
2021/07/11 01:18:29;;;;;;;7.70;7.00;;;19.40;99.90;;;;;;4939534;29;20488;-86
2021/07/11 01:21:01;;;;;;;8.70;7.80;;;19.40;99.90;;;;;;4929461;29;21379;-83
2021/07/11 01:23:31;;;;;;;6.90;6.30;;;19.30;99.90;;;;;;4984612;28;20467;-84
2021/07/11 01:26:01;;;;;;;7.83;6.90;;;19.20;99.90;;;;;;5012233;28;20529;-86
2021/07/11 01:28:29;;;;;;;7.77;7.07;;;19.30;99.90;;;;;;5005016;28;20486;-85
2021/07/11 01:30:56;;;;;;;9.90;6.97;;;19.10;99.90;;;;;;4990313;28;20479;-85
2021/07/11 01:33:28;;;;;;;7.40;6.70;;;19.00;99.90;;;;;;5002777;28;20496;-85
2021/07/11 01:35:55;;;;;;;7.13;6.43;;;19.00;99.90;;;;;;5018971;28;20442;-87
2021/07/11 01:38:23;;;;;;;8.03;7.30;;;19.00;99.90;;;;;;5012913;28;20515;-86
2021/07/11 01:40:50;;;;;;;7.60;6.90;;;19.30;99.90;;;;;;5001718;28;20846;-86
2021/07/11 01:43:21;;;;;;;7.80;7.13;;;19.20;99.90;;;;;;4999462;28;20444;-86
2021/07/11 01:45:54;;;;;;;7.90;7.10;;;19.40;99.90;;;;;;5012482;28;20422;-87
2021/07/11 01:48:21;;;;;;;8.10;7.40;;;19.50;99.90;;;;;;5000116;28;20467;-86
2021/07/11 01:50:55;;;;;;;12.27;7.43;;;19.60;99.90;;;;;;5017107;28;21017;-86
2021/07/11 01:53:25;;;;;;;8.43;7.63;;;19.30;99.90;;;;;;5018235;28;20445;-87
2021/07/11 01:55:53;;;;;;;8.40;7.57;;;19.00;99.90;;;;;;5000327;28;20443;-86
2021/07/11 01:58:20;;;;;;;9.50;8.57;;;19.00;99.90;;;;;;4995725;28;20466;-86
2021/07/11 02:00:52;;;;;;;9.30;8.40;;;18.90;99.90;;;;;;4999466;28;20927;-86
2021/07/11 02:03:21;;;;;;;8.80;8.00;;;18.80;99.90;;;;;;4989772;28;20454;-87
2021/07/11 02:05:49;;;;;;;10.70;9.80;;;18.80;99.90;;;;;;4991831;28;20459;-85
2021/07/11 02:08:16;;;;;;;10.33;9.27;;;18.80;99.90;;;;;;5000101;28;20493;-87
2021/07/11 02:10:52;;;;;;;10.77;9.40;;;18.80;99.90;;;;;;5001253;28;20506;-85
2021/07/11 02:13:30;;;;;;;10.80;9.80;;;18.80;99.90;;;;;;5005902;28;20870;-85
2021/07/11 02:16:10;;;;;;;14.90;9.50;;;18.80;99.90;;;;;;5005834;28;20462;-85
2021/07/11 02:21:41;;;;;;;11.50;10.30;;;18.80;99.90;;;;;;5017800;28;20461;-85
2021/07/11 02:24:09;;;;;;;13.77;9.73;;;18.80;99.90;;;;;;5010468;28;20463;-85
2021/07/11 02:26:37;;;;;;;13.13;10.20;;;18.80;99.90;;;;;;5001315;28;20446;-86
2021/07/11 02:29:08;;;;;;;12.20;10.83;;;18.80;99.90;;;;;;4999622;28;20512;-86
2021/07/11 02:31:36;;;;;;;12.77;11.37;;;18.80;99.90;;;;;;5013883;28;20449;-86
2021/07/11 02:34:04;;;;;;;13.57;11.93;;;18.80;99.90;;;;;;5005171;28;20470;-86
2021/07/11 02:36:32;;;;;;;12.80;11.60;;;18.70;99.90;;;;;;5033865;28;20457;-87
2021/07/11 02:39:11;;;;;;;13.00;11.60;;;18.70;99.90;;;;;;4998077;28;20967;-87
2021/07/11 02:41:41;;;;;;;14.60;12.80;;;18.70;99.90;;;;;;5032429;28;20456;-86
2021/07/11 02:44:11;;;;;;;16.53;13.40;;;18.70;99.90;;;;;;5039448;28;20449;-87
2021/07/11 02:46:40;;;;;;;15.20;12.23;;;18.70;99.90;;;;;;4990399;28;20459;-85
2021/07/11 02:49:11;;;;;;;15.23;13.40;;;18.70;99.90;;;;;;4979789;28;20514;-85
2021/07/11 02:51:44;;;;;;;15.63;12.80;;;18.70;99.90;;;;;;4979961;28;20455;-85
2021/07/11 02:54:16;;;;;;;14.43;12.90;;;18.70;99.90;;;;;;5022523;28;20943;-85
2021/07/11 02:56:47;;;;;;;15.97;14.30;;;18.60;99.90;;;;;;5012241;28;20469;-87
2021/07/11 02:59:14;;;;;;;15.33;13.27;;;18.70;99.90;;;;;;5044567;28;20460;-89
2021/07/11 03:01:42;;;;;;;14.40;12.90;;;18.70;99.90;;;;;;5022928;28;20458;-88
2021/07/11 03:04:12;;;;;;;15.73;14.17;;;18.70;99.90;;;;;;5032358;28;20903;-88
2021/07/11 03:06:38;;;;;;;15.33;13.30;;;18.70;99.90;;;;;;5008142;28;20438;-85
2021/07/11 03:09:06;;;;;;;15.10;13.70;;;18.70;99.90;;;;;;4994370;28;20632;-83
2021/07/11 03:11:37;;;;;;;19.73;12.60;;;18.70;99.90;;;;;;5005731;28;20476;-87
2021/07/11 03:14:07;;;;;;;16.30;13.90;;;18.80;99.90;;;;;;4996372;28;20435;-85
2021/07/11 03:16:36;;;;;;;15.63;14.20;;;18.70;99.90;;;;;;4999293;28;20441;-85
2021/07/11 03:19:03;;;;;;;14.90;13.30;;;18.70;99.90;;;;;;5020858;28;20462;-86
2021/07/11 03:21:30;;;;;;;15.50;13.93;;;18.70;99.90;;;;;;5016674;28;20457;-85
2021/07/11 03:23:57;;;;;;;14.73;13.33;;;18.70;99.90;;;;;;5001476;28;20469;-85
2021/07/11 03:26:27;;;;;;;16.07;14.43;;;18.70;99.90;;;;;;5020695;28;20477;-86
2021/07/11 03:28:54;;;;;;;14.70;13.30;;;18.70;99.90;;;;;;5004984;28;20473;-86
2021/07/11 03:31:22;;;;;;;14.40;13.00;;;18.70;99.90;;;;;;5009031;28;20454;-86
2021/07/11 03:33:53;;;;;;;14.60;13.17;;;18.70;99.90;;;;;;4998096;28;20536;-86
2021/07/11 03:36:23;;;;;;;16.10;14.40;;;18.70;99.90;;;;;;4996645;28;20458;-84
2021/07/11 03:41:42;;;;;;;16.13;14.63;;;18.80;99.90;;;;;;5009224;23;20557;-84
2021/07/11 03:44:11;;;;;;;15.53;14.03;;;18.80;99.90;;;;;;5001623;28;20223;-85
2021/07/11 03:46:43;;;;;;;20.17;14.47;;;18.70;99.90;;;;;;5012183;28;21295;-84
2021/07/11 03:49:14;;;;;;;15.70;14.10;;;18.70;99.90;;;;;;5020797;28;20988;-84
2021/07/11 03:55:17;;;;;;;15.97;14.37;;;18.70;99.90;;;;;;4972753;28;20483;-86
2021/07/11 04:05:26;;;;;;;16.27;14.60;;;18.70;99.90;;;;;;4967494;28;20497;-85
2021/07/11 04:11:41;;;;;;;16.17;14.50;;;18.70;99.90;;;;;;4983717;28;20457;-84
2021/07/11 04:18:05;;;;;;;14.93;13.27;;;18.70;99.90;;;;;;4896817;29;20564;-84
2021/07/11 04:20:34;;;;;;;13.23;11.93;;;18.80;99.90;;;;;;4994687;28;20492;-88
2021/07/11 04:23:01;;;;;;;14.63;12.90;;;19.40;99.90;;;;;;5012968;28;20455;-86
2021/07/11 04:25:33;;;;;;;16.30;14.43;;;19.60;99.90;;;;;;5015512;28;20466;-84
2021/07/11 04:28:01;;;;;;;15.03;13.53;;;19.70;99.90;;;;;;4997426;28;20854;-85
2021/07/11 04:30:29;;;;;;;15.97;12.87;;;19.60;99.90;;;;;;5001160;28;20470;-90
2021/07/11 04:32:56;;;;;;;14.27;12.77;;;19.30;99.90;;;;;;5029193;28;20423;-86
2021/07/11 04:35:23;;;;;;;12.93;11.63;;;19.10;99.90;;;;;;5004730;28;20446;-84
2021/07/11 04:37:51;;;;;;;12.30;11.20;;;19.10;99.90;;;;;;4991490;28;20450;-85
2021/07/11 04:40:18;;;;;;;12.37;11.03;;;18.90;99.90;;;;;;4987276;28;20475;-85
2021/07/11 04:42:45;;;;;;;14.37;11.87;;;18.90;99.90;;;;;;4984503;28;20505;-86
2021/07/11 04:45:12;;;;;;;11.33;10.23;;;18.90;99.90;;;;;;4983107;28;20561;-85
2021/07/11 04:47:39;;;;;;;16.23;12.40;;;18.90;99.90;;;;;;5012507;28;20472;-85
2021/07/11 04:50:06;;;;;;;13.27;11.23;;;18.80;99.90;;;;;;4998387;28;20493;-84
2021/07/11 04:52:33;;;;;;;12.13;10.90;;;18.80;99.90;;;;;;5000135;28;20461;-84
2021/07/11 04:55:00;;;;;;;11.67;10.57;;;18.80;99.90;;;;;;5000264;28;20450;-87
2021/07/11 04:57:29;;;;;;;13.27;11.43;;;18.80;99.90;;;;;;5007675;28;20458;-85
2021/07/11 04:59:56;;;;;;;11.83;10.63;;;18.70;99.90;;;;;;5013197;28;20481;-85
2021/07/11 05:02:23;;;;;;;14.90;11.47;;;18.70;99.90;;;;;;4998700;28;20813;-86
2021/07/11 05:04:49;;;;;;;12.37;11.20;;;18.70;99.90;;;;;;4990148;28;20472;-86
2021/07/11 05:07:16;;;;;;;14.03;10.80;;;18.70;99.90;;;;;;4998594;28;20449;-86
2021/07/11 05:09:43;;;;;;;11.93;10.60;;;18.70;99.90;;;;;;5003673;28;20506;-86
2021/07/11 05:12:12;;;;;;;11.40;10.23;;;18.70;99.90;;;;;;4995626;28;20450;-85
2021/07/11 05:14:39;;;;;;;11.73;10.53;;;18.70;99.90;;;;;;4960581;28;20459;-86
2021/07/11 05:21:14;;;;;;;15.93;11.17;;;18.70;99.90;;;;;;4975959;28;20464;-86
2021/07/11 05:23:40;;;;;;;12.37;11.07;;;18.70;99.90;;;;;;4987498;28;20453;-87
2021/07/11 05:26:07;;;;;;;13.30;11.90;;;18.70;99.90;;;;;;5000501;28;20938;-85
2021/07/11 05:29:24;;;;;;;12.53;11.17;;;18.70;99.90;;;;;;4999994;28;20446;-86
2021/07/11 05:32:06;;;;;;;12.77;11.43;;;18.70;99.90;;;;;;4928662;29;20950;-86
2021/07/11 05:42:13;;;;;;;12.83;10.60;;;18.70;99.90;;;;;;4813015;29;20487;-85
2021/07/11 05:44:40;;;;;;;15.83;11.70;;;18.80;99.90;;;;;;4826273;29;20463;-86
2021/07/11 05:47:11;;;;;;;13.50;11.63;;;18.80;99.90;;;;;;4826399;29;21418;-86
2021/07/11 05:52:21;;;;;;;12.20;10.50;;;18.80;99.90;;;;;;5234933;23;20490;-87
2021/07/11 05:54:49;;;;;;;13.00;11.63;;;18.80;99.90;;;;;;5017331;28;20546;-87
2021/07/11 05:57:31;;;;;;;;;;;;;;;;;;;;;
2021/07/11 06:03:52;;;;;;;12.60;11.30;;;19.10;99.90;;;;;;4993053;28;20435;-85
2021/07/11 06:06:19;;;;;;;13.40;12.13;;;19.10;99.90;;;;;;5003245;28;20540;-88
2021/07/11 06:08:45;;;;;;;12.97;11.67;;;19.00;99.90;;;;;;4995786;28;20451;-87
2021/07/11 06:11:12;;;;;;;12.93;11.50;;;19.00;99.90;;;;;;4990619;28;20470;-85
2021/07/11 06:13:43;;;;;;;12.67;11.37;;;19.00;99.90;;;;;;4992263;28;20450;-87
2021/07/11 06:16:11;;;;;;;13.10;11.63;;;19.00;99.90;;;;;;5002185;28;20450;-87
2021/07/11 06:18:46;;;;;;;12.13;10.30;;;19.00;99.90;;;;;;5002336;28;20449;-86
2021/07/11 06:21:17;;;;;;;11.57;10.30;;;19.10;99.90;;;;;;4991620;28;20486;-88
2021/07/11 06:23:57;;;;;;;11.57;10.47;;;19.00;99.90;;;;;;4982360;28;20610;-86
2021/07/11 06:26:24;;;;;;;12.90;9.60;;;19.00;99.90;;;;;;5011749;28;21084;-87
2021/07/11 06:28:51;;;;;;;12.67;11.37;;;19.00;99.90;;;;;;5001592;28;20831;-85
2021/07/11 06:31:21;;;;;;;10.83;9.80;;;19.00;99.90;;;;;;5014879;28;20494;-85
2021/07/11 06:34:02;;;;;;;11.53;10.43;;;19.00;99.90;;;;;;4971505;28;20952;-84
2021/07/11 06:40:24;;;;;;;12.53;11.33;;;19.10;99.90;;;;;;4960629;28;20796;-85
2021/07/11 06:46:23;;;;;;;11.07;9.97;;;19.10;99.90;;;;;;4995497;28;20414;-84
2021/07/11 06:48:50;;;;;;;10.67;9.77;;;19.20;99.90;;;;;;5035826;28;20469;-85
2021/07/11 06:51:17;;;;;;;11.20;10.07;;;19.20;99.90;;;;;;5030976;28;20545;-88
2021/07/11 06:53:43;;;;;;;10.63;9.63;;;19.30;99.90;;;;;;5041827;28;20717;-87
2021/07/11 06:56:10;;;;;;;11.67;10.57;;;19.30;99.90;;;;;;5027507;28;20446;-85
2021/07/11 06:58:37;;;;;;;10.23;8.73;;;19.20;99.90;;;;;;5028762;28;20443;-87
2021/07/11 07:01:04;;;;;;;12.13;10.73;;;19.20;99.90;;;;;;5036303;28;20498;-87
2021/07/11 07:03:30;;;;;;;10.23;9.13;;;19.20;99.90;;;;;;5019607;28;20454;-89
2021/07/11 07:05:57;;;;;;;11.50;10.40;;;19.20;99.90;;;;;;5021159;28;20452;-87
2021/07/11 07:08:25;;;;;;;12.17;10.70;;;19.10;99.90;;;;;;5012127;28;20590;-85
2021/07/11 07:10:52;;;;;;;16.20;9.73;;;19.10;99.90;;;;;;5004416;28;20493;-85
2021/07/11 07:13:20;;;;;;;10.37;9.37;;;19.10;99.90;;;;;;5009701;28;20443;-86
2021/07/11 07:15:52;;;;;;;10.67;9.57;;;19.10;99.90;;;;;;4999264;28;20602;-84
2021/07/11 07:24:21;;;;;;;11.47;10.50;;;19.10;99.90;;;;;;5124423;23;20566;-87
2021/07/11 07:27:07;;;;;;;11.10;10.00;;;19.00;99.90;;;;;;5024000;28;20417;-86
2021/07/11 07:29:34;;;;;;;11.93;10.70;;;19.10;99.90;;;;;;5006087;28;20481;-87
2021/07/11 07:32:03;;;;;;;12.37;10.60;;;19.10;99.90;;;;;;5034498;28;20450;-87
2021/07/11 07:38:52;;;;;;;10.07;9.10;;;19.20;99.90;;;;;;4904928;29;20450;-85
2021/07/11 07:41:19;;;;;;;11.33;9.77;;;19.20;99.90;;;;;;4914062;28;20468;-87
2021/07/11 07:43:46;;;;;;;11.63;10.43;;;19.30;99.90;;;;;;4976563;28;20440;-88
2021/07/11 07:50:33;;;;;;;10.83;9.73;;;19.30;99.90;;;;;;4870510;29;20451;-86
2021/07/11 07:56:50;;;;;;;10.17;8.90;;;19.30;99.90;;;;;;4834066;29;20459;-86
2021/07/11 07:59:17;;;;;;;10.93;9.63;;;19.30;99.90;;;;;;4961944;28;20544;-86
2021/07/11 08:01:44;;;;;;;10.57;9.60;;;19.30;99.90;;;;;;4962877;28;20452;-86
2021/07/11 08:09:19;;;;;;;10.73;9.77;;;19.20;99.90;;;;;;4981786;28;20566;-86
2021/07/11 08:11:46;;;;;;;11.30;10.20;;;19.20;99.90;;;;;;4976710;28;20485;-86
2021/07/11 08:21:36;;;;;;;11.57;10.43;;;19.30;99.90;;;;;;5467808;23;20476;-87
2021/07/11 08:24:04;;;;;;;11.87;10.57;;;19.30;99.90;;;;;;5022079;28;20460;-86
2021/07/11 08:26:41;;;;;;;11.70;10.60;;;19.40;99.90;;;;;;5017404;28;20456;-87
2021/07/11 08:29:08;;;;;;;11.47;10.37;;;19.40;99.90;;;;;;5011128;28;20449;-86
2021/07/11 08:31:34;;;;;;;12.20;10.90;;;19.40;99.90;;;;;;5031977;28;20560;-87
2021/07/11 08:34:02;;;;;;;10.90;9.80;;;19.40;99.90;;;;;;5022579;28;20445;-87
2021/07/11 08:39:57;;;;;;;12.53;10.70;;;19.40;99.90;;;;;;5043231;28;20799;-87
2021/07/11 08:42:24;;;;;;;11.63;10.53;;;19.50;99.90;;;;;;5025489;28;20449;-89
2021/07/11 08:44:52;;;;;;;12.40;11.10;;;19.50;99.90;;;;;;5023770;28;20555;-86
2021/07/11 08:55:24;;;;;;;10.70;9.70;;;20.10;99.90;;;;;;4987304;28;20919;-84
2021/07/11 08:57:53;;;;;;;11.73;9.60;;;20.10;99.90;;;;;;5019768;28;20465;-87
2021/07/11 09:00:32;;;;;;;9.70;8.90;;;20.10;99.90;;;;;;5022637;28;20466;-85
2021/07/11 09:02:59;;;;;;;9.80;8.90;;;20.20;99.90;;;;;;5023831;28;20464;-86
2021/07/11 09:05:31;;;;;;;10.27;9.27;;;20.40;99.90;;;;;;5014824;28;20462;-86
2021/07/11 09:08:25;;;;;;;10.10;9.20;;;20.80;99.90;;;;;;5021808;28;20449;-86
2021/07/11 09:11:00;;;;;;;8.80;8.00;;;21.10;99.90;;;;;;5026492;28;20552;-89
2021/07/11 09:13:30;;;;;;;10.67;8.40;;;21.40;99.90;;;;;;5035356;28;20473;-85
2021/07/11 09:15:59;;;;;;;10.33;9.23;;;21.70;99.90;;;;;;5025572;28;20441;-87
2021/07/11 09:18:32;;;;;;;9.87;9.00;;;21.70;99.90;;;;;;5023637;28;20469;-86
2021/07/11 09:21:02;;;;;;;11.07;9.20;;;21.90;99.90;;;;;;5024557;28;20488;-85
2021/07/11 09:23:31;;;;;;;9.40;8.60;;;22.10;99.10;;;;;;5025941;28;20484;-87
2021/07/11 09:30:09;;;;;;;9.87;8.97;;;22.10;98.60;;;;;;5011005;23;20895;-87
2021/07/11 09:32:40;;;;;;;10.87;9.77;;;22.10;98.60;;;;;;5022519;28;20450;-87
2021/07/11 09:35:23;;;;;;;10.17;9.17;;;22.00;98.80;;;;;;5007622;28;20429;-87
2021/07/11 09:37:53;;;;;;;10.30;9.30;;;22.30;98.70;;;;;;5026600;28;20793;-87
2021/07/11 09:40:23;;;;;;;10.67;9.67;;;22.60;98.40;;;;;;5029218;28;20564;-87
2021/07/11 09:42:55;;;;;;;10.63;9.63;;;22.70;96.90;;;;;;5017029;28;20447;-86
2021/07/11 09:45:27;;;;;;;12.10;11.00;;;22.80;97.10;;;;;;5022079;28;20481;-88
2021/07/11 09:48:05;;;;;;;10.10;9.30;;;22.90;97.30;;;;;;5010061;28;20463;-87
2021/07/11 09:50:32;;;;;;;10.30;9.30;;;23.30;97.10;;;;;;5014675;28;20487;-86
2021/07/11 09:53:00;;;;;;;10.23;9.00;;;23.20;96.10;;;;;;5041019;28;20472;-86
2021/07/11 09:55:47;;;;;;;8.60;7.80;;;23.50;95.40;;;;;;5028336;28;20413;-88
2021/07/11 09:58:32;;;;;;;8.07;7.37;;;24.10;94.60;;;;;;5040522;28;20449;-87
2021/07/11 10:00:59;;;;;;;8.80;7.20;;;24.60;93.50;;;;;;5117276;23;20544;-86
2021/07/11 10:03:27;;;;;;;8.40;7.60;;;25.60;91.20;;;;;;5008420;28;20828;-88
2021/07/11 10:05:54;;;;;;;10.93;8.10;;;24.80;91.40;;;;;;5015960;28;20471;-86
2021/07/11 10:08:21;;;;;;;8.63;7.93;;;24.10;92.50;;;;;;5011591;28;20539;-87
2021/07/11 10:10:48;;;;;;;8.37;7.67;;;23.50;93.80;;;;;;5026709;28;20458;-88
2021/07/11 10:17:43;;;;;;;;;;;;;;;;;;;;;
2021/07/11 10:24:56;;;;;;;;;;;;;;;;;;;;;
2021/07/11 10:34:03;;;;;;;6.40;5.13;;;23.10;95.20;;;;;;5205218;23;20499;-85
2021/07/11 10:36:31;;;;;;;7.07;6.57;;;23.30;94.70;;;;;;5007003;28;20443;-85
2021/07/11 10:47:59;;;;;;;6.90;4.90;;;23.90;93.50;;;;;;5066756;23;20490;-87
2021/07/11 11:02:25;;;;;;;4.00;3.70;;;25.40;91.10;;;;;;5025258;23;20506;-87
2021/07/11 11:11:38;;;;;;;4.37;3.40;;;24.00;92.40;;;;;;5629865;23;20580;-87
2021/07/11 11:14:07;;;;;;;3.73;3.43;;;24.60;91.20;;;;;;5018510;28;20579;-86
2021/07/11 11:16:45;;;;;;;2.73;2.53;;;24.60;90.90;;;;;;5015808;28;20454;-87
2021/07/11 11:19:13;;;;;;;2.97;2.77;;;24.00;91.30;;;;;;5018268;28;20596;-87
2021/07/11 11:21:40;;;;;;;3.20;2.90;;;23.70;91.90;;;;;;5017823;28;20994;-87
2021/07/11 11:24:09;;;;;;;3.77;3.50;;;23.80;91.70;;;;;;5010062;28;20472;-87
2021/07/11 11:26:35;;;;;;;3.47;3.13;;;23.60;92.20;;;;;;4999160;28;20478;-88
2021/07/11 11:29:05;;;;;;;3.37;3.10;;;23.40;92.60;;;;;;5005825;28;20459;-86
2021/07/11 11:31:34;;;;;;;3.23;3.00;;;23.40;93.10;;;;;;5007984;28;20479;-86
2021/07/11 11:34:10;;;;;;;3.63;2.33;;;23.40;93.10;;;;;;5001959;28;20459;-86
2021/07/11 11:36:45;;;;;;;3.70;3.03;;;23.30;92.90;;;;;;4990450;28;20459;-86
2021/07/11 11:39:19;;;;;;;3.40;3.10;;;23.50;92.60;;;;;;4999048;28;20451;-86
2021/07/11 11:41:47;;;;;;;5.13;2.90;;;23.30;93.00;;;;;;4992264;28;20467;-87
2021/07/11 11:44:15;;;;;;;5.63;3.40;;;23.20;93.30;;;;;;4981334;28;20463;-87
2021/07/11 11:46:51;;;;;;;3.30;3.03;;;23.10;93.50;;;;;;4994442;28;20545;-85
2021/07/11 11:49:20;;;;;;;3.67;3.37;;;23.00;93.50;;;;;;4999705;28;20506;-85
2021/07/11 11:51:56;;;;;;;3.67;3.00;;;23.30;93.50;;;;;;4993237;28;20502;-85
2021/07/11 11:54:32;;;;;;;3.50;3.20;;;24.00;92.40;;;;;;4989377;28;20470;-86
2021/07/11 11:57:00;;;;;;;3.70;3.40;;;24.40;91.90;;;;;;4980850;28;20467;-87
2021/07/11 11:59:31;;;;;;;3.53;3.10;;;24.90;90.70;;;;;;5010686;28;20982;-86
2021/07/11 12:30:05;;;;;;;3.00;2.77;;;24.20;91.30;;;;;;4795786;30;20578;-85
2021/07/11 12:32:46;;;;;;;2.83;2.63;;;24.10;91.30;;;;;;4783137;29;20477;-85
2021/07/11 12:35:15;;;;;;;2.50;2.40;;;24.10;91.30;;;;;;4862706;29;20449;-85
2021/07/11 12:37:48;;;;;;;3.70;3.40;;;24.00;91.50;;;;;;4961295;28;20452;-86
2021/07/11 12:40:20;;;;;;;3.87;3.33;;;24.00;91.50;;;;;;4961761;28;20497;-86
2021/07/11 12:43:05;;;;;;;3.47;3.17;;;23.90;91.80;;;;;;4981596;28;20458;-85
2021/07/11 12:45:35;;;;;;;3.20;3.00;;;23.80;91.50;;;;;;4994408;28;20453;-87
2021/07/11 12:48:03;;;;;;;3.30;3.10;;;23.90;91.00;;;;;;5001225;28;20454;-85
2021/07/11 12:50:53;;;;;;;2.90;2.70;;;23.90;90.60;;;;;;5000251;28;20503;-84
2021/07/11 12:53:20;;;;;;;3.63;3.33;;;23.70;91.00;;;;;;5011844;28;20444;-89
2021/07/11 12:55:48;;;;;;;4.60;3.80;;;23.60;91.70;;;;;;5034320;28;20509;-90
2021/07/11 12:58:15;;;;;;;4.93;4.20;;;23.80;91.80;;;;;;5041378;28;20469;-88
2021/07/11 13:00:42;;;;;;;4.47;4.07;;;23.50;92.60;;;;;;5030760;28;20466;-89
2021/07/11 13:03:09;;;;;;;4.47;4.13;;;23.30;93.30;;;;;;5047759;28;20465;-89
2021/07/11 13:05:42;;;;;;;4.77;4.27;;;23.30;93.70;;;;;;5015067;28;20454;-85
2021/07/11 13:08:12;;;;;;;4.10;3.73;;;23.30;93.80;;;;;;4989916;28;20455;-84
2021/07/11 13:10:42;;;;;;;3.60;3.40;;;23.30;93.80;;;;;;5003315;28;20481;-85
2021/07/11 13:13:10;;;;;;;3.90;3.50;;;23.30;93.80;;;;;;5007729;28;20450;-86
2021/07/11 13:15:40;;;;;;;3.80;3.50;;;23.50;93.60;;;;;;5039727;28;20461;-86
2021/07/11 13:18:08;;;;;;;4.17;3.87;;;23.70;93.00;;;;;;5013207;28;20468;-87
2021/07/11 13:20:35;;;;;;;4.47;4.07;;;24.00;92.30;;;;;;5043502;28;20485;-86
2021/07/11 13:23:03;;;;;;;4.40;3.90;;;24.30;91.70;;;;;;5009719;28;20459;-87
2021/07/11 13:25:30;;;;;;;4.20;3.87;;;24.50;91.30;;;;;;5005396;28;20458;-86
2021/07/11 13:27:57;;;;;;;3.90;3.50;;;24.70;90.70;;;;;;5004206;28;20514;-83
2021/07/11 13:30:25;;;;;;;4.30;3.97;;;25.10;90.10;;;;;;5023131;28;20470;-85
2021/07/11 13:32:56;;;;;;;4.63;4.10;;;25.00;89.50;;;;;;4997564;28;20484;-85
2021/07/11 13:35:24;;;;;;;4.10;3.70;;;25.00;88.60;;;;;;5030057;28;20537;-87
2021/07/11 13:37:53;;;;;;;4.20;3.90;;;24.90;88.10;;;;;;5015528;28;20468;-86
2021/07/11 13:40:20;;;;;;;3.73;3.43;;;25.00;88.00;;;;;;4995985;28;20574;-85
2021/07/11 13:42:48;;;;;;;3.53;3.33;;;24.90;87.90;;;;;;5003454;28;20509;-86
2021/07/11 13:45:23;;;;;;;13.03;3.70;;;24.80;88.00;;;;;;5008854;28;20528;-86
2021/07/11 13:47:54;;;;;;;4.37;3.97;;;24.70;88.80;;;;;;4998019;28;20458;-86
2021/07/11 13:50:21;;;;;;;4.50;4.10;;;24.60;89.80;;;;;;5017998;28;20476;-87
2021/07/11 13:52:48;;;;;;;4.57;4.17;;;24.50;90.00;;;;;;5023172;28;20477;-86
2021/07/11 13:55:18;;;;;;;3.87;3.57;;;24.60;90.00;;;;;;5012340;28;21009;-86
2021/07/11 13:58:29;;;;;;;4.03;3.73;;;24.80;89.40;;;;;;5002375;28;20455;-87
2021/07/11 14:01:15;;;;;;;4.33;4.00;;;24.90;88.70;;;;;;4996728;28;20454;-88
2021/07/11 14:03:42;;;;;;;4.83;3.90;;;25.10;87.40;;;;;;5001224;28;20875;-84
2021/07/11 14:06:09;;;;;;;12.47;11.47;;;26.10;84.10;;;;;;5011680;28;20462;-86
2021/07/11 14:08:36;;;;;;;6.47;5.87;;;26.00;84.40;;;;;;5030401;28;20851;-84
2021/07/11 14:16:19;;;;;;;3.10;2.90;;;26.00;81.30;;;;;;3135707;26;20483;-88
2021/07/11 14:18:46;;;;;;;3.57;3.37;;;26.40;78.50;;;;;;4964525;28;20929;-86
2021/07/11 14:21:13;;;;;;;4.30;3.73;;;26.10;79.60;;;;;;4958237;28;20477;-85
2021/07/11 14:23:40;;;;;;;4.00;3.70;;;26.00;80.40;;;;;;4977247;28;20452;-84
2021/07/11 14:26:06;;;;;;;4.37;4.00;;;25.80;82.10;;;;;;4979628;28;20507;-86
2021/07/11 14:28:33;;;;;;;4.30;3.90;;;25.40;82.60;;;;;;4979970;28;20532;-86
2021/07/11 14:31:04;;;;;;;3.67;3.37;;;25.20;83.90;;;;;;4964215;28;20565;-87
2021/07/11 14:33:31;;;;;;;3.67;3.37;;;25.60;80.70;;;;;;4963597;28;20459;-86
2021/07/11 14:35:58;;;;;;;3.67;3.47;;;25.50;80.60;;;;;;4980497;28;20452;-85
2021/07/11 14:42:41;;;;;;;3.90;3.70;;;24.80;83.90;;;;;;4908047;29;20485;-87
2021/07/11 14:45:08;;;;;;;4.60;3.70;;;25.00;81.90;;;;;;4931485;29;20513;-85
2021/07/11 14:47:49;;;;;;;4.60;3.40;;;24.90;83.30;;;;;;4978168;28;20480;-88
2021/07/11 14:50:16;;;;;;;4.40;4.10;;;24.90;82.60;;;;;;4978262;28;20539;-85
2021/07/11 14:52:43;;;;;;;4.50;4.20;;;25.10;81.70;;;;;;4983500;28;20476;-86
2021/07/11 14:55:10;;;;;;;4.40;4.00;;;25.40;81.30;;;;;;4961319;29;20532;-88
2021/07/11 14:57:37;;;;;;;4.13;3.83;;;25.40;79.90;;;;;;4959903;28;20459;-87
2021/07/11 15:00:06;;;;;;;4.40;4.10;;;25.20;80.10;;;;;;4977525;28;20478;-87
2021/07/11 15:02:33;;;;;;;3.80;3.50;;;25.20;80.40;;;;;;4978263;28;20479;-86
2021/07/11 15:05:29;;;;;;;4.60;4.30;;;25.10;80.20;;;;;;4958935;28;20466;-86
2021/07/11 15:08:10;;;;;;;3.67;3.47;;;25.00;80.60;;;;;;4896100;29;20447;-87
2021/07/11 15:10:36;;;;;;;4.43;4.03;;;24.90;80.90;;;;;;4883878;29;20478;-86
2021/07/11 15:16:35;;;;;;;3.57;3.37;;;25.50;79.30;;;;;;4904947;29;20593;-88
2021/07/11 15:19:02;;;;;;;4.30;3.97;;;25.50;80.00;;;;;;4916090;29;20447;-86
2021/07/11 15:25:09;;;;;;;4.50;4.20;;;26.00;77.50;;;;;;4915072;29;20451;-85
2021/07/11 15:27:36;;;;;;;4.27;3.97;;;25.80;78.20;;;;;;4898542;29;20801;-85
2021/07/11 15:30:03;;;;;;;3.90;3.70;;;25.60;78.60;;;;;;4897707;29;20478;-86
2021/07/11 15:32:31;;;;;;;4.90;4.40;;;25.80;78.90;;;;;;4910996;29;20487;-87
2021/07/11 15:35:43;;;;;;;3.43;3.23;;;26.20;76.40;;;;;;4921463;29;20457;-85
2021/07/11 15:43:05;;;;;;;4.60;4.20;;;26.00;76.50;;;;;;4920856;29;20438;-86
2021/07/11 15:45:46;;;;;;;3.57;3.37;;;25.90;76.40;;;;;;4924097;28;20488;-85
2021/07/11 15:55:56;;;;;;;4.73;4.17;;;26.10;77.00;;;;;;4941193;29;20425;-86
2021/07/11 16:02:18;;;;;;;4.50;4.10;;;26.00;76.40;;;;;;5317659;23;20853;-88
2021/07/11 16:12:58;;;;;;;4.23;3.83;;;25.80;75.90;;;;;;4855662;29;20499;-85
2021/07/11 16:16:17;;;;;;;4.80;4.40;;;25.90;75.40;;;;;;4887697;29;20476;-85
2021/07/11 16:18:45;;;;;;;3.83;3.53;;;25.90;75.40;;;;;;4903329;29;20487;-89
2021/07/11 16:21:11;;;;;;;5.13;4.00;;;25.90;75.40;;;;;;4886172;29;20484;-85
2021/07/11 16:23:38;;;;;;;3.77;3.47;;;25.90;75.50;;;;;;4888338;29;20463;-87
2021/07/11 16:27:06;;;;;;;3.77;3.47;;;25.90;75.20;;;;;;4886699;29;20467;-85
2021/07/11 16:34:52;;;;;;;3.30;3.10;;;26.00;75.10;;;;;;5587953;23;20522;-86
2021/07/11 16:37:20;;;;;;;3.63;3.33;;;25.80;75.10;;;;;;4995852;28;20475;-85
2021/07/11 16:39:47;;;;;;;3.70;3.40;;;25.60;74.90;;;;;;4980939;28;20467;-86
2021/07/11 16:53:50;;;;;;;3.83;3.53;;;25.80;75.10;;;;;;4884003;29;20485;-86
2021/07/11 16:56:58;;;;;;;5.37;4.00;;;26.10;74.30;;;;;;4903265;29;20486;-86